createdAt,value
2022-08-31T00:00:08.912Z,65.71
2022-08-31T00:01:08.945Z,65.61
2022-08-31T00:02:08.922Z,65.91
2022-08-31T00:03:08.863Z,65.81
2022-08-31T00:04:09.243Z,65.81
2022-08-31T00:05:08.989Z,65.74
2022-08-31T00:06:08.888Z,66.05
2022-08-31T00:07:08.836Z,65.94
2022-08-31T00:08:08.811Z,65.94
2022-08-31T00:09:09.174Z,66.14
2022-08-31T00:10:08.798Z,66.05
2022-08-31T00:11:08.793Z,66.14
2022-08-31T00:12:08.781Z,66.14
2022-08-31T00:13:08.841Z,65.94
2022-08-31T00:14:09.900Z,66.14
2022-08-31T00:15:08.702Z,66.05
2022-08-31T00:16:08.736Z,66.35
2022-08-31T00:17:08.702Z,66.14
2022-08-31T00:18:08.666Z,66.55
2022-08-31T00:19:09.072Z,66.24
2022-08-31T00:20:08.642Z,66.64
2022-08-31T00:21:09.628Z,66.85
2022-08-31T00:22:08.611Z,66.64
2022-08-31T00:23:08.600Z,66.55
2022-08-31T00:24:08.993Z,66.95
2022-08-31T00:25:08.613Z,66.98
2022-08-31T00:26:08.628Z,66.85
2022-08-31T00:27:08.541Z,66.88
2022-08-31T00:28:08.530Z,66.98
2022-08-31T00:29:08.561Z,67.08
2022-08-31T00:30:08.898Z,67.18
2022-08-31T00:31:08.521Z,67.28
2022-08-31T00:32:08.573Z,67.08
2022-08-31T00:33:08.459Z,67.08
2022-08-31T00:34:08.488Z,67.18
2022-08-31T00:35:08.881Z,67.18
2022-08-31T00:36:08.450Z,67.18
2022-08-31T00:37:08.409Z,67.18
2022-08-31T00:38:08.427Z,67.18
2022-08-31T00:39:08.831Z,67.28
2022-08-31T00:40:08.432Z,66.98
2022-08-31T00:41:08.380Z,67.28
2022-08-31T00:42:08.375Z,67.28
2022-08-31T00:43:08.347Z,67.18
2022-08-31T00:44:08.717Z,67.38
2022-08-31T00:45:08.342Z,67.38
2022-08-31T00:46:08.340Z,67.38
2022-08-31T00:47:08.289Z,67.48
2022-08-31T00:48:08.262Z,67.28
2022-08-31T00:49:08.287Z,67.48
2022-08-31T00:50:08.587Z,67.48
2022-08-31T00:51:08.232Z,67.68
2022-08-31T00:52:08.237Z,67.88
2022-08-31T00:53:08.243Z,67.78
2022-08-31T00:54:08.214Z,67.88
2022-08-31T00:55:08.587Z,67.78
2022-08-31T00:56:08.196Z,68.08
2022-08-31T00:57:08.146Z,67.88
2022-08-31T00:58:08.176Z,67.98
2022-08-31T00:59:08.228Z,68.08
2022-08-31T01:00:08.625Z,68.08
2022-08-31T01:01:08.261Z,67.88
2022-08-31T01:02:08.153Z,68.18
2022-08-31T01:03:08.069Z,68.49
2022-08-31T01:04:08.077Z,68.38
2022-08-31T01:05:08.424Z,68.38
2022-08-31T01:06:08.043Z,68.59
2022-08-31T01:07:07.994Z,68.68
2022-08-31T01:08:08.016Z,68.99
2022-08-31T01:09:08.175Z,68.88
2022-08-31T01:10:09.015Z,68.88
2022-08-31T01:11:07.976Z,69.29
2022-08-31T01:12:07.953Z,69.39
2022-08-31T01:13:07.965Z,69.39
2022-08-31T01:14:08.037Z,69.09
2022-08-31T01:15:08.671Z,69.39
2022-08-31T01:16:08.991Z,69.49
2022-08-31T01:17:07.884Z,68.99
2022-08-31T01:18:07.882Z,68.95
2022-08-31T01:19:07.879Z,68.95
2022-08-31T01:20:08.315Z,68.95
2022-08-31T01:21:07.833Z,68.85
2022-08-31T01:22:07.833Z,69.26
2022-08-31T01:23:07.843Z,69.06
2022-08-31T01:24:07.795Z,69.26
2022-08-31T01:25:08.194Z,69.46
2022-08-31T01:26:07.765Z,70.06
2022-08-31T01:27:07.756Z,70.46
2022-08-31T01:28:07.733Z,71.36
2022-08-31T01:29:07.759Z,72.77
2022-08-31T01:30:08.044Z,73.27
2022-08-31T01:31:07.708Z,74.71
2022-08-31T01:32:07.684Z,75.01
2022-08-31T01:33:07.724Z,75.51
2022-08-31T01:34:08.213Z,75.21
2022-08-31T01:35:11.493Z,76.21
2022-08-31T01:36:07.644Z,76.65
2022-08-31T01:37:07.617Z,77.36
2022-08-31T01:38:07.603Z,77.96
2022-08-31T01:39:07.592Z,78.40
2022-08-31T01:40:08.023Z,78.50
2022-08-31T01:41:07.590Z,78.70
2022-08-31T01:42:07.544Z,79.21
2022-08-31T01:43:07.568Z,79.10
2022-08-31T01:44:07.540Z,79.61
2022-08-31T01:45:07.833Z,80.11
2022-08-31T01:46:09.072Z,79.54
2022-08-31T01:47:07.756Z,79.61
2022-08-31T01:48:07.463Z,79.71
2022-08-31T01:49:07.471Z,80.15
2022-08-31T01:50:07.486Z,80.15
2022-08-31T01:51:07.829Z,80.35
2022-08-31T01:52:07.415Z,80.65
2022-08-31T01:53:07.408Z,80.95
2022-08-31T01:54:07.387Z,81.56
2022-08-31T01:55:07.381Z,81.85
2022-08-31T01:56:07.797Z,82.46
2022-08-31T01:57:07.389Z,82.66
2022-08-31T01:58:07.350Z,83.06
2022-08-31T01:59:08.455Z,83.87
2022-08-31T02:00:07.321Z,84.41
2022-08-31T02:01:10.359Z,84.91
2022-08-31T02:02:08.432Z,85.62
2022-08-31T02:03:08.086Z,85.96
2022-08-31T02:04:07.360Z,86.06
2022-08-31T02:05:07.554Z,86.66
2022-08-31T02:06:07.679Z,87.21
2022-08-31T02:07:07.259Z,87.21
2022-08-31T02:08:07.200Z,87.31
2022-08-31T02:09:07.231Z,86.81
2022-08-31T02:10:07.188Z,86.91
2022-08-31T02:11:07.629Z,89.12
2022-08-31T02:12:07.176Z,90.94
2022-08-31T02:13:07.167Z,93.40
2022-08-31T02:14:07.137Z,93.44
2022-08-31T02:15:07.119Z,93.95
2022-08-31T02:16:07.543Z,94.80
2022-08-31T02:17:07.122Z,95.70
2022-08-31T02:18:07.099Z,96.11
2022-08-31T02:19:07.088Z,97.62
2022-08-31T02:20:07.060Z,98.47
2022-08-31T02:21:07.375Z,98.98
2022-08-31T02:22:07.378Z,99.18
2022-08-31T02:23:07.436Z,99.18
2022-08-31T02:24:08.397Z,99.88
2022-08-31T02:25:07.015Z,99.88
2022-08-31T02:26:07.427Z,99.99
2022-08-31T02:27:06.984Z,99.99
2022-08-31T02:28:06.977Z,99.99
2022-08-31T02:29:06.954Z,99.99
2022-08-31T02:30:06.937Z,99.99
2022-08-31T02:31:07.435Z,99.99
2022-08-31T02:32:06.925Z,99.99
2022-08-31T02:33:06.884Z,99.99
2022-08-31T02:34:06.891Z,99.99
2022-08-31T02:35:06.866Z,99.99
2022-08-31T02:36:07.359Z,99.99
2022-08-31T02:37:06.833Z,99.99
2022-08-31T02:38:06.812Z,99.99
2022-08-31T02:39:06.815Z,99.99
2022-08-31T02:40:06.838Z,99.99
2022-08-31T02:41:07.155Z,99.99
2022-08-31T02:42:06.765Z,99.99
2022-08-31T02:43:06.771Z,99.99
2022-08-31T02:44:06.736Z,99.99
2022-08-31T02:45:06.734Z,99.99
2022-08-31T02:46:07.177Z,99.99
2022-08-31T02:47:06.694Z,99.99
2022-08-31T02:48:06.691Z,99.99
2022-08-31T02:49:06.673Z,99.99
2022-08-31T02:50:06.664Z,99.99
2022-08-31T02:51:06.654Z,99.99
2022-08-31T02:52:07.067Z,99.99
2022-08-31T02:53:06.634Z,99.99
2022-08-31T02:54:06.613Z,99.99
2022-08-31T02:55:06.622Z,99.99
2022-08-31T02:56:06.626Z,99.99
2022-08-31T02:57:07.001Z,99.99
2022-08-31T02:58:06.543Z,99.99
2022-08-31T02:59:06.543Z,99.99
2022-08-31T03:00:06.551Z,99.99
2022-08-31T03:01:06.521Z,99.99
2022-08-31T03:02:06.944Z,99.99
2022-08-31T03:03:06.517Z,99.99
2022-08-31T03:04:06.466Z,99.99
2022-08-31T03:05:06.491Z,99.99
2022-08-31T03:06:06.891Z,99.99
2022-08-31T03:07:06.461Z,99.99
2022-08-31T03:08:06.421Z,99.99
2022-08-31T03:09:06.417Z,99.99
2022-08-31T03:10:06.421Z,99.99
2022-08-31T03:11:06.372Z,99.99
2022-08-31T03:12:06.792Z,99.99
2022-08-31T03:13:06.388Z,99.99
2022-08-31T03:14:06.431Z,99.99
2022-08-31T03:15:06.680Z,99.99
2022-08-31T03:16:06.398Z,99.99
2022-08-31T03:17:06.651Z,99.99
2022-08-31T03:18:06.805Z,99.99
2022-08-31T03:19:06.273Z,99.99
2022-08-31T03:20:06.279Z,99.99
2022-08-31T03:21:06.258Z,99.99
2022-08-31T03:22:06.559Z,99.99
2022-08-31T03:23:06.219Z,99.99
2022-08-31T03:24:06.232Z,99.99
2022-08-31T03:25:06.200Z,99.99
2022-08-31T03:26:06.169Z,99.99
2022-08-31T03:27:06.592Z,99.99
2022-08-31T03:28:06.160Z,99.99
2022-08-31T03:29:06.146Z,99.99
2022-08-31T03:30:06.120Z,99.99
2022-08-31T03:31:06.157Z,99.99
2022-08-31T03:32:06.518Z,99.99
2022-08-31T03:33:06.095Z,99.99
2022-08-31T03:34:06.075Z,99.99
2022-08-31T03:35:06.092Z,99.99
2022-08-31T03:36:06.057Z,99.99
2022-08-31T03:37:06.387Z,99.99
2022-08-31T03:38:06.019Z,99.99
2022-08-31T03:39:06.026Z,99.99
2022-08-31T03:40:06.017Z,99.99
2022-08-31T03:41:05.965Z,99.99
2022-08-31T03:42:06.284Z,99.99
2022-08-31T03:43:05.965Z,99.99
2022-08-31T03:44:05.947Z,99.99
2022-08-31T03:45:05.924Z,99.99
2022-08-31T03:46:06.110Z,99.99
2022-08-31T03:47:07.325Z,99.99
2022-08-31T03:48:10.030Z,99.99
2022-08-31T03:49:06.885Z,99.99
2022-08-31T03:50:05.842Z,99.99
2022-08-31T03:51:05.842Z,99.99
2022-08-31T03:52:06.265Z,99.99
2022-08-31T03:53:05.845Z,99.99
2022-08-31T03:54:05.786Z,99.99
2022-08-31T03:55:05.792Z,99.99
2022-08-31T03:56:05.794Z,99.99
2022-08-31T03:57:06.192Z,99.99
2022-08-31T03:58:06.006Z,99.99
2022-08-31T03:59:05.751Z,99.99
2022-08-31T04:00:05.994Z,99.99
2022-08-31T04:01:05.758Z,99.99
2022-08-31T04:02:06.150Z,99.99
2022-08-31T04:03:05.735Z,99.99
2022-08-31T04:04:06.624Z,99.99
2022-08-31T04:05:05.671Z,99.99
2022-08-31T04:06:05.640Z,99.99
2022-08-31T04:07:05.983Z,99.99
2022-08-31T04:08:05.604Z,99.99
2022-08-31T04:09:05.620Z,99.99
2022-08-31T04:10:05.590Z,99.99
2022-08-31T04:11:05.582Z,99.99
2022-08-31T04:12:05.965Z,99.99
2022-08-31T04:13:05.561Z,99.99
2022-08-31T04:14:05.522Z,99.99
2022-08-31T04:15:05.538Z,99.99
2022-08-31T04:16:05.776Z,99.99
2022-08-31T04:17:05.863Z,99.99
2022-08-31T04:18:05.471Z,99.99
2022-08-31T04:19:07.904Z,99.99
2022-08-31T04:20:05.451Z,99.99
2022-08-31T04:21:05.452Z,99.99
2022-08-31T04:22:05.731Z,99.99
2022-08-31T04:23:05.420Z,99.99
2022-08-31T04:24:05.387Z,99.99
2022-08-31T04:25:05.399Z,99.99
2022-08-31T04:26:05.397Z,99.99
2022-08-31T04:27:05.370Z,99.99
2022-08-31T04:28:05.730Z,99.99
2022-08-31T04:29:08.597Z,99.99
2022-08-31T04:30:06.309Z,99.99
2022-08-31T04:31:05.317Z,99.99
2022-08-31T04:32:05.289Z,99.99
2022-08-31T04:33:05.739Z,99.99
2022-08-31T04:34:05.265Z,99.99
2022-08-31T04:35:05.255Z,99.99
2022-08-31T04:36:05.239Z,99.99
2022-08-31T04:37:05.279Z,99.99
2022-08-31T04:38:05.681Z,99.99
2022-08-31T04:39:05.188Z,99.99
2022-08-31T04:40:05.252Z,99.99
2022-08-31T04:41:05.176Z,99.99
2022-08-31T04:42:05.204Z,99.99
2022-08-31T04:43:05.567Z,99.99
2022-08-31T04:44:05.126Z,99.99
2022-08-31T04:45:05.157Z,99.99
2022-08-31T04:46:05.180Z,99.99
2022-08-31T04:47:05.084Z,99.99
2022-08-31T04:48:05.515Z,99.99
2022-08-31T04:49:05.057Z,99.99
2022-08-31T04:50:05.037Z,99.99
2022-08-31T04:51:05.037Z,99.99
2022-08-31T04:52:05.005Z,99.99
2022-08-31T04:53:05.394Z,99.99
2022-08-31T04:54:05.006Z,99.99
2022-08-31T04:55:05.006Z,99.99
2022-08-31T04:56:04.955Z,99.99
2022-08-31T04:57:04.985Z,99.99
2022-08-31T04:58:05.366Z,99.99
2022-08-31T04:59:12.086Z,99.99
2022-08-31T05:00:04.904Z,99.99
2022-08-31T05:01:04.934Z,99.99
2022-08-31T05:02:05.016Z,99.99
2022-08-31T05:03:04.915Z,99.99
2022-08-31T05:04:04.876Z,99.99
2022-08-31T05:05:04.844Z,99.99
2022-08-31T05:06:04.836Z,99.99
2022-08-31T05:07:04.833Z,99.99
2022-08-31T05:08:05.272Z,99.99
2022-08-31T05:09:04.806Z,99.99
2022-08-31T05:10:04.785Z,99.99
2022-08-31T05:11:04.794Z,99.99
2022-08-31T05:12:04.743Z,99.99
2022-08-31T05:13:04.783Z,99.99
2022-08-31T05:14:04.816Z,99.99
2022-08-31T05:15:04.744Z,99.99
2022-08-31T05:16:04.777Z,99.99
2022-08-31T05:17:04.675Z,99.99
2022-08-31T05:18:04.703Z,99.99
2022-08-31T05:19:04.662Z,99.99
2022-08-31T05:20:04.690Z,99.99
2022-08-31T05:21:04.630Z,99.99
2022-08-31T05:22:04.652Z,99.99
2022-08-31T05:23:04.644Z,99.99
2022-08-31T05:24:04.603Z,99.99
2022-08-31T05:25:04.586Z,99.99
2022-08-31T05:26:04.592Z,99.99
2022-08-31T05:27:04.534Z,99.99
2022-08-31T05:28:04.564Z,99.99
2022-08-31T05:29:04.542Z,99.99
2022-08-31T05:30:04.541Z,99.99
2022-08-31T05:31:04.559Z,99.99
2022-08-31T05:32:04.492Z,99.99
2022-08-31T05:33:04.501Z,99.99
2022-08-31T05:34:04.901Z,99.99
2022-08-31T05:35:04.442Z,99.99
2022-08-31T05:36:04.430Z,99.99
2022-08-31T05:37:04.401Z,99.99
2022-08-31T05:38:04.411Z,99.99
2022-08-31T05:39:25.780Z,99.99
2022-08-31T05:40:04.399Z,99.99
2022-08-31T05:41:04.357Z,99.99
2022-08-31T05:42:04.341Z,99.99
2022-08-31T05:43:04.343Z,99.99
2022-08-31T05:44:04.664Z,99.99
2022-08-31T05:45:04.323Z,99.99
2022-08-31T05:46:08.098Z,99.99
2022-08-31T05:47:05.334Z,99.99
2022-08-31T05:48:04.268Z,99.99
2022-08-31T05:49:04.304Z,99.99
2022-08-31T05:50:04.248Z,99.99
2022-08-31T05:51:04.239Z,99.99
2022-08-31T05:52:04.327Z,99.99
2022-08-31T05:53:04.311Z,99.99
2022-08-31T05:54:04.537Z,99.99
2022-08-31T05:55:04.189Z,99.99
2022-08-31T05:56:04.160Z,99.99
2022-08-31T05:57:04.155Z,99.99
2022-08-31T05:58:04.128Z,99.99
2022-08-31T05:59:04.518Z,99.99
2022-08-31T06:00:04.116Z,99.99
2022-08-31T06:01:04.098Z,99.99
2022-08-31T06:02:04.192Z,99.99
2022-08-31T06:03:04.087Z,99.99
2022-08-31T06:04:04.078Z,99.99
2022-08-31T06:05:04.096Z,99.99
2022-08-31T06:06:04.048Z,99.99
2022-08-31T06:07:04.118Z,99.99
2022-08-31T06:08:04.025Z,99.99
2022-08-31T06:09:04.344Z,99.99
2022-08-31T06:10:04.000Z,99.99
2022-08-31T06:11:03.984Z,99.99
2022-08-31T06:12:03.944Z,99.99
2022-08-31T06:13:03.937Z,99.99
2022-08-31T06:14:04.368Z,99.99
2022-08-31T06:15:03.896Z,99.99
2022-08-31T06:16:03.969Z,99.99
2022-08-31T06:17:03.883Z,99.99
2022-08-31T06:18:03.896Z,99.99
2022-08-31T06:19:04.173Z,99.99
2022-08-31T06:20:03.858Z,99.99
2022-08-31T06:21:03.845Z,99.99
2022-08-31T06:22:03.823Z,99.99
2022-08-31T06:23:03.811Z,99.99
2022-08-31T06:24:04.264Z,99.99
2022-08-31T06:25:03.783Z,99.99
2022-08-31T06:26:03.765Z,99.99
2022-08-31T06:27:03.764Z,99.99
2022-08-31T06:28:03.740Z,99.99
2022-08-31T06:29:04.171Z,99.99
2022-08-31T06:30:04.891Z,99.99
2022-08-31T06:31:03.788Z,99.99
2022-08-31T06:32:03.730Z,99.99
2022-08-31T06:33:03.906Z,99.99
2022-08-31T06:34:04.163Z,99.99
2022-08-31T06:35:03.666Z,99.99
2022-08-31T06:36:03.651Z,99.99
2022-08-31T06:37:03.671Z,99.99
2022-08-31T06:38:03.614Z,99.99
2022-08-31T06:39:03.592Z,99.99
2022-08-31T06:40:03.671Z,99.99
2022-08-31T06:41:03.575Z,99.99
2022-08-31T06:42:03.579Z,99.99
2022-08-31T06:43:03.562Z,99.99
2022-08-31T06:44:03.541Z,99.99
2022-08-31T06:45:03.922Z,99.99
2022-08-31T06:46:03.574Z,99.99
2022-08-31T06:47:03.507Z,99.99
2022-08-31T06:48:03.500Z,99.99
2022-08-31T06:49:03.464Z,99.99
2022-08-31T06:50:03.911Z,99.99
2022-08-31T06:51:03.451Z,99.99
2022-08-31T06:52:03.449Z,99.99
2022-08-31T06:53:03.435Z,99.99
2022-08-31T06:54:21.507Z,99.99
2022-08-31T06:55:04.840Z,99.99
2022-08-31T06:56:03.370Z,99.99
2022-08-31T06:57:03.361Z,99.99
2022-08-31T06:58:03.349Z,99.99
2022-08-31T06:59:03.351Z,99.99
2022-08-31T07:00:03.711Z,99.99
2022-08-31T07:01:03.375Z,99.99
2022-08-31T07:02:03.438Z,99.99
2022-08-31T07:03:03.322Z,99.99
2022-08-31T07:04:03.716Z,99.99
2022-08-31T07:05:03.288Z,99.99
2022-08-31T07:06:03.238Z,99.99
2022-08-31T07:07:03.239Z,99.99
2022-08-31T07:08:03.210Z,99.99
2022-08-31T07:09:03.228Z,99.99
2022-08-31T07:10:03.644Z,99.99
2022-08-31T07:11:03.208Z,99.99
2022-08-31T07:12:03.156Z,99.94
2022-08-31T07:13:03.180Z,99.99
2022-08-31T07:14:03.139Z,99.99
2022-08-31T07:15:03.146Z,99.99
2022-08-31T07:16:03.217Z,99.99
2022-08-31T07:17:03.152Z,99.99
2022-08-31T07:18:06.076Z,99.99
2022-08-31T07:19:04.093Z,99.99
2022-08-31T07:20:03.096Z,99.99
2022-08-31T07:21:03.056Z,99.99
2022-08-31T07:22:03.028Z,99.99
2022-08-31T07:23:03.017Z,99.99
2022-08-31T07:24:03.058Z,99.99
2022-08-31T07:25:03.398Z,99.99
2022-08-31T07:26:02.977Z,99.99
2022-08-31T07:27:02.965Z,99.99
2022-08-31T07:28:02.960Z,99.99
2022-08-31T07:29:02.946Z,99.99
2022-08-31T07:30:03.329Z,99.99
2022-08-31T07:31:02.957Z,99.99
2022-08-31T07:32:02.922Z,99.99
2022-08-31T07:33:02.878Z,99.99
2022-08-31T07:34:02.878Z,99.99
2022-08-31T07:35:02.859Z,99.99
2022-08-31T07:36:03.164Z,99.99
2022-08-31T07:37:02.834Z,99.99
2022-08-31T07:38:02.822Z,99.99
2022-08-31T07:39:02.835Z,99.99
2022-08-31T07:40:07.036Z,99.99
2022-08-31T07:41:04.318Z,99.99
2022-08-31T07:42:02.774Z,99.99
2022-08-31T07:43:02.774Z,99.99
2022-08-31T07:44:02.762Z,99.99
2022-08-31T07:45:02.746Z,99.99
2022-08-31T07:46:03.126Z,99.99
2022-08-31T07:47:02.714Z,99.99
2022-08-31T07:48:02.735Z,99.99
2022-08-31T07:49:02.698Z,99.99
2022-08-31T07:50:02.683Z,99.99
2022-08-31T07:51:02.684Z,99.99
2022-08-31T07:52:02.636Z,99.99
2022-08-31T07:53:02.642Z,99.99
2022-08-31T07:54:02.620Z,99.99
2022-08-31T07:55:02.715Z,99.99
2022-08-31T07:56:02.999Z,99.99
2022-08-31T07:57:02.592Z,99.99
2022-08-31T07:58:02.562Z,99.99
2022-08-31T07:59:02.605Z,99.99
2022-08-31T08:00:02.541Z,99.99
2022-08-31T08:01:02.895Z,99.94
2022-08-31T08:02:02.608Z,99.79
2022-08-31T08:03:02.510Z,99.94
2022-08-31T08:04:02.482Z,99.84
2022-08-31T08:05:02.480Z,99.84
2022-08-31T08:06:02.812Z,99.94
2022-08-31T08:07:02.450Z,99.79
2022-08-31T08:08:02.441Z,99.79
2022-08-31T08:09:22.438Z,99.49
2022-08-31T08:10:03.431Z,99.59
2022-08-31T08:11:02.441Z,99.49
2022-08-31T08:12:02.390Z,99.08
2022-08-31T08:13:04.876Z,99.08
2022-08-31T08:14:06.576Z,99.29
2022-08-31T08:15:03.360Z,99.39
2022-08-31T08:16:02.433Z,99.69
2022-08-31T08:17:02.321Z,99.89
2022-08-31T08:18:02.319Z,99.69
2022-08-31T08:19:02.293Z,99.79
2022-08-31T08:20:02.271Z,99.69
2022-08-31T08:21:02.332Z,99.19
2022-08-31T08:22:02.271Z,99.49
2022-08-31T08:23:02.226Z,99.49
2022-08-31T08:24:02.228Z,99.59
2022-08-31T08:25:02.207Z,99.49
2022-08-31T08:26:02.629Z,99.39
2022-08-31T08:27:02.438Z,99.49
2022-08-31T08:28:17.147Z,99.39
2022-08-31T08:29:03.187Z,99.29
2022-08-31T08:30:02.146Z,99.69
2022-08-31T08:31:02.197Z,99.89
2022-08-31T08:32:02.159Z,99.89
2022-08-31T08:33:02.164Z,99.59
2022-08-31T08:34:02.375Z,99.39
2022-08-31T08:35:02.206Z,99.19
2022-08-31T08:36:02.076Z,98.99
2022-08-31T08:37:02.447Z,98.88
2022-08-31T08:38:05.720Z,98.99
2022-08-31T08:39:03.039Z,98.88
2022-08-31T08:40:02.065Z,98.38
2022-08-31T08:41:02.016Z,98.58
2022-08-31T08:42:02.326Z,98.48
2022-08-31T08:43:01.982Z,98.68
2022-08-31T08:44:01.947Z,98.79
2022-08-31T08:45:01.947Z,98.68
2022-08-31T08:46:19.786Z,98.79
2022-08-31T08:47:03.377Z,98.48
2022-08-31T08:48:01.934Z,98.68
2022-08-31T08:49:01.969Z,98.68
2022-08-31T08:50:01.875Z,98.48
2022-08-31T08:51:01.864Z,98.28
2022-08-31T08:52:02.085Z,97.93
2022-08-31T08:53:01.933Z,97.93
2022-08-31T08:54:01.844Z,97.73
2022-08-31T08:55:01.817Z,97.53
2022-08-31T08:56:23.134Z,97.33
2022-08-31T08:57:02.823Z,97.33
2022-08-31T08:58:01.798Z,97.03
2022-08-31T08:59:01.793Z,96.98
2022-08-31T09:00:01.764Z,96.78
2022-08-31T09:01:01.764Z,96.58
2022-08-31T09:02:02.414Z,96.78
2022-08-31T09:03:01.882Z,96.68
2022-08-31T09:04:01.713Z,96.17
2022-08-31T09:05:01.674Z,96.03
2022-08-31T09:06:01.673Z,96.03
2022-08-31T09:07:09.499Z,95.62
2022-08-31T09:08:08.838Z,95.42
2022-08-31T09:09:01.653Z,95.12
2022-08-31T09:10:01.625Z,94.98
2022-08-31T09:11:01.610Z,94.98
2022-08-31T09:12:01.843Z,94.87
2022-08-31T09:13:01.574Z,94.02
2022-08-31T09:14:01.555Z,93.73
2022-08-31T09:15:01.562Z,94.33
2022-08-31T09:16:01.655Z,94.13
2022-08-31T09:17:01.932Z,93.32
2022-08-31T09:18:01.579Z,94.23
2022-08-31T09:19:01.506Z,93.82
2022-08-31T09:20:01.545Z,93.58
2022-08-31T09:21:01.473Z,93.18
2022-08-31T09:22:01.499Z,92.27
2022-08-31T09:23:01.450Z,92.33
2022-08-31T09:24:01.433Z,92.13
2022-08-31T09:25:01.429Z,91.32
2022-08-31T09:26:03.961Z,90.52
2022-08-31T09:27:02.431Z,90.72
2022-08-31T09:28:01.370Z,90.37
2022-08-31T09:29:01.369Z,90.58
2022-08-31T09:30:01.374Z,90.53
2022-08-31T09:31:01.413Z,90.29
2022-08-31T09:32:05.956Z,90.19
2022-08-31T09:33:01.314Z,88.95
2022-08-31T09:34:01.301Z,88.10
2022-08-31T09:35:01.283Z,87.60
2022-08-31T09:36:01.261Z,87.55
2022-08-31T09:37:01.254Z,86.46
2022-08-31T09:38:01.329Z,86.52
2022-08-31T09:39:01.234Z,86.32
2022-08-31T09:40:04.369Z,86.07
2022-08-31T09:41:02.336Z,84.37
2022-08-31T09:42:01.258Z,85.27
2022-08-31T09:43:01.201Z,85.73
2022-08-31T09:44:01.223Z,84.59
2022-08-31T09:45:01.794Z,81.09
2022-08-31T09:46:01.732Z,81.99
2022-08-31T09:47:01.148Z,83.23
2022-08-31T09:48:01.132Z,82.23
2022-08-31T09:49:01.111Z,82.03
2022-08-31T09:50:01.081Z,82.03
2022-08-31T09:51:01.131Z,80.73
2022-08-31T09:52:01.297Z,83.17
2022-08-31T09:53:01.040Z,82.63
2022-08-31T09:54:01.058Z,81.93
2022-08-31T09:55:01.026Z,82.03
2022-08-31T09:56:01.011Z,81.59
2022-08-31T09:57:00.991Z,80.99
2022-08-31T09:58:01.060Z,80.55
2022-08-31T09:59:00.981Z,81.05
2022-08-31T10:00:00.960Z,80.41
2022-08-31T10:01:01.011Z,79.28
2022-08-31T10:02:01.409Z,79.14
2022-08-31T10:03:06.001Z,78.80
2022-08-31T10:04:01.915Z,78.07
2022-08-31T10:05:01.052Z,76.37
2022-08-31T10:06:00.888Z,76.57
2022-08-31T10:07:01.171Z,75.34
2022-08-31T10:08:00.866Z,74.90
2022-08-31T10:09:00.850Z,74.07
2022-08-31T10:10:00.820Z,72.48
2022-08-31T10:11:00.829Z,74.74
2022-08-31T10:12:01.132Z,75.61
2022-08-31T10:13:00.830Z,77.78
2022-08-31T10:14:00.770Z,75.38
2022-08-31T10:15:00.779Z,77.48
2022-08-31T10:16:00.790Z,75.85
2022-08-31T10:17:01.178Z,76.95
2022-08-31T10:18:00.974Z,76.84
2022-08-31T10:19:00.770Z,77.34
2022-08-31T10:20:00.730Z,76.65
2022-08-31T10:21:00.707Z,76.11
2022-08-31T10:22:00.700Z,76.61
2022-08-31T10:23:00.691Z,77.21
2022-08-31T10:24:00.630Z,75.61
2022-08-31T10:25:00.647Z,75.41
2022-08-31T10:26:00.659Z,74.81
2022-08-31T10:27:00.647Z,74.88
2022-08-31T10:28:00.602Z,75.11
2022-08-31T10:29:00.582Z,75.01
2022-08-31T10:30:00.570Z,72.95
2022-08-31T10:31:00.633Z,75.05
2022-08-31T10:32:00.712Z,75.74
2022-08-31T10:33:00.640Z,75.38
2022-08-31T10:34:00.560Z,74.76
2022-08-31T10:35:00.500Z,74.49
2022-08-31T10:36:00.484Z,76.79
2022-08-31T10:37:00.547Z,76.89
2022-08-31T10:38:00.469Z,76.29
2022-08-31T10:39:00.612Z,77.09
2022-08-31T10:40:00.497Z,75.89
2022-08-31T10:41:00.460Z,76.43
2022-08-31T10:42:00.828Z,75.63
2022-08-31T10:43:00.422Z,76.23
2022-08-31T10:44:00.380Z,74.03
2022-08-31T10:45:00.380Z,76.23
2022-08-31T10:46:00.410Z,75.43
2022-08-31T10:47:00.407Z,74.59
2022-08-31T10:48:00.333Z,73.56
2022-08-31T10:49:00.342Z,74.69
2022-08-31T10:50:00.404Z,74.49
2022-08-31T10:51:00.360Z,74.39
2022-08-31T10:52:00.630Z,74.85
2022-08-31T10:53:02.646Z,74.12
2022-08-31T10:54:00.249Z,72.92
2022-08-31T10:55:00.239Z,74.05
2022-08-31T10:56:00.261Z,74.66
2022-08-31T10:57:00.708Z,74.22
2022-08-31T10:58:00.199Z,72.72
2022-08-31T10:59:00.249Z,73.72
2022-08-31T11:00:00.177Z,73.52
2022-08-31T11:01:00.544Z,72.56
2022-08-31T11:02:00.569Z,73.86
2022-08-31T11:03:00.144Z,72.92
2022-08-31T11:04:08.417Z,72.39
2022-08-31T11:05:08.419Z,71.29
2022-08-31T11:06:08.378Z,71.29
2022-08-31T11:07:00.107Z,71.46
2022-08-31T11:08:08.651Z,72.86
2022-08-31T11:09:10.290Z,72.76
2022-08-31T11:10:08.272Z,72.02
2022-08-31T11:11:00.058Z,71.26
2022-08-31T11:12:08.598Z,70.62
2022-08-31T11:13:08.357Z,70.39
2022-08-31T11:14:00.055Z,69.09
2022-08-31T11:15:08.352Z,69.39
2022-08-31T11:16:00.056Z,68.46
2022-08-31T11:17:00.125Z,68.19
2022-08-31T11:18:07.348Z,68.63
2022-08-31T11:18:59.941Z,69.23
2022-08-31T11:20:08.132Z,68.93
2022-08-31T11:21:09.251Z,67.73
2022-08-31T11:21:59.960Z,69.39
2022-08-31T11:23:00.651Z,70.03
2022-08-31T11:24:07.192Z,71.19
2022-08-31T11:24:59.893Z,70.62
2022-08-31T11:25:59.858Z,69.23
2022-08-31T11:26:59.894Z,71.22
2022-08-31T11:28:00.312Z,71.06
2022-08-31T11:29:07.184Z,69.56
2022-08-31T11:30:08.051Z,69.62
2022-08-31T11:31:08.112Z,68.49
2022-08-31T11:32:06.980Z,67.83
2022-08-31T11:33:08.942Z,67.60
2022-08-31T11:34:15.505Z,65.41
2022-08-31T11:36:11.316Z,65.41
2022-08-31T11:37:20.222Z,64.61
2022-08-31T11:38:18.647Z,65.41
2022-08-31T11:39:18.173Z,66.11
2022-08-31T11:40:19.334Z,65.94
2022-08-31T11:41:19.170Z,64.94
2022-08-31T11:42:18.130Z,65.54
2022-08-31T11:43:19.800Z,66.11
2022-08-31T11:44:18.103Z,64.45
2022-08-31T11:45:19.172Z,65.84
2022-08-31T11:46:10.924Z,65.24
2022-08-31T11:47:10.937Z,66.44
2022-08-31T11:48:20.452Z,65.87
2022-08-31T11:49:10.899Z,64.97
2022-08-31T11:50:10.883Z,64.64
2022-08-31T11:51:10.779Z,65.47
2022-08-31T11:54:35.033Z,66.00
2022-08-31T11:55:34.753Z,67.50
2022-08-31T11:56:34.740Z,66.57
2022-08-31T11:57:37.774Z,66.20
2022-08-31T11:58:35.078Z,66.60
2022-08-31T11:59:34.649Z,67.60
2022-08-31T12:00:34.618Z,66.87
2022-08-31T12:01:34.628Z,66.04
2022-08-31T12:02:34.648Z,66.01
2022-08-31T12:03:34.908Z,66.04
2022-08-31T12:04:34.578Z,65.51
2022-08-31T12:05:34.632Z,64.61
2022-08-31T12:06:34.537Z,65.61
2022-08-31T12:07:34.597Z,65.41
2022-08-31T12:08:34.589Z,64.69
2022-08-31T12:09:34.614Z,63.29
2022-08-31T12:10:34.507Z,65.01
2022-08-31T12:11:35.338Z,65.34
2022-08-31T12:12:34.581Z,65.27
2022-08-31T12:13:34.904Z,67.07
2022-08-31T12:14:34.459Z,66.97
2022-08-31T12:15:34.509Z,66.77
2022-08-31T12:16:34.509Z,67.47
2022-08-31T12:17:34.458Z,66.27
2022-08-31T12:18:34.833Z,67.03
2022-08-31T12:19:34.410Z,68.73
2022-08-31T12:20:34.378Z,68.43
2022-08-31T12:21:34.389Z,68.73
2022-08-31T12:22:34.349Z,67.63
2022-08-31T12:23:34.592Z,68.56
2022-08-31T12:24:34.329Z,68.96
2022-08-31T12:25:34.658Z,69.16
2022-08-31T12:26:34.377Z,68.66
2022-08-31T12:27:36.273Z,67.83
2022-08-31T12:28:34.729Z,68.13
2022-08-31T12:29:34.359Z,67.83
2022-08-31T12:30:34.272Z,68.63
2022-08-31T12:31:34.397Z,68.10
2022-08-31T12:32:34.309Z,68.13
2022-08-31T12:33:34.359Z,67.70
2022-08-31T12:34:34.189Z,67.70
2022-08-31T12:35:34.227Z,68.30
2022-08-31T12:36:34.206Z,67.20
2022-08-31T12:37:34.180Z,67.73
2022-08-31T12:38:34.168Z,67.57
2022-08-31T12:39:34.744Z,69.13
2022-08-31T12:40:34.344Z,70.72
2022-08-31T12:41:34.121Z,71.03
2022-08-31T12:42:34.090Z,69.73
2022-08-31T12:43:34.435Z,70.36
2022-08-31T12:44:34.135Z,70.06
2022-08-31T12:45:34.099Z,70.26
2022-08-31T12:46:34.112Z,70.66
2022-08-31T12:47:34.096Z,70.56
2022-08-31T12:48:34.490Z,71.06
2022-08-31T12:49:34.125Z,71.33
2022-08-31T12:50:34.144Z,70.32
2022-08-31T12:51:34.097Z,70.23
2022-08-31T12:52:33.964Z,69.73
2022-08-31T12:53:34.350Z,69.69
2022-08-31T12:54:33.942Z,69.93
2022-08-31T12:55:33.978Z,69.09